Terminal Aerodrome Forecast
Issued by NWS

Home | Current Version | Previous Version | Text Only | Print | Product List | Glossary On
Versions: 1 2 3 4 5 6 7 8 9 10 11 12 13
712
FTUS45 KFGZ 170523
TAFGCN
TAF
KGCN 170523Z 1706/1806 VRB06KT P6SM FEW250
     FM172000 23009KT P6SM FEW250
     FM180100 VRB04KT P6SM FEW250=

USA.gov is the U.S. government's official web portal to all federal, state and local government web resources and services.